Assawoman, Virginia
Current Conditions -  °F | °C
As of 12:54 AM on Saturday 20 Dec 2014 (Local Time) from KWAL Reporting Station
Clear Clear  
Wind Chill: 23°   Ceiling: Unl
Heat Index: 29°   Visibility: 10mi
Dew Point: 25°   Wind: 6mph
Humidity: 85%   Direction: 340°NNW
Pressure: 30.23"   Gusts: NA
Location:  37.88°N, 75.53°W
Report Text: KWAL 200554Z AUTO 34005KT 10SM CLR M02/M04 A3023 RMK AO2 SLP234 T10171039 10011 21022 51006
Loading
Personal Weather Stations






























Interactive Weather Map New forecast layout! Learn more

10-Day Weather Forecast

Advertisements
Track Severe Weather on mobile